createdAt,value
2018-05-07T00:03:13.482Z,72.5
2018-05-07T00:08:13.407Z,73.2
2018-05-07T00:13:13.515Z,73
2018-05-07T00:18:13.507Z,72.6
2018-05-07T00:23:25.067Z,73.6
2018-05-07T00:28:24.941Z,73.8
2018-05-07T00:33:24.737Z,75.6
2018-05-07T00:38:24.802Z,75.9
2018-05-07T00:43:24.980Z,74.8
2018-05-07T00:48:24.967Z,74.8
2018-05-07T00:53:25.220Z,74.2
2018-05-07T00:58:30.442Z,74.4
2018-05-07T01:03:30.177Z,74.5
2018-05-07T01:08:43.765Z,75
2018-05-07T01:13:43.505Z,76.4
2018-05-07T01:18:43.496Z,78.3
2018-05-07T01:23:43.522Z,76.5
2018-05-07T01:28:43.489Z,77.4
2018-05-07T01:33:43.510Z,77.6
2018-05-07T01:38:43.497Z,78.7
2018-05-07T01:43:45.118Z,77.9
2018-05-07T01:48:44.836Z,77.7
2018-05-07T01:53:57.223Z,79.4
2018-05-07T01:58:56.892Z,79.2
2018-05-07T02:03:56.943Z,79.8
2018-05-07T02:08:57.159Z,78.8
2018-05-07T02:13:57.077Z,78.6
2018-05-07T02:18:57.081Z,78.7
2018-05-07T02:23:57.095Z,79.1
2018-05-07T02:28:57.039Z,79.6
2018-05-07T02:33:57.264Z,80.2
2018-05-07T02:39:08.797Z,80.6
2018-05-07T02:44:08.524Z,80.1
2018-05-07T02:49:08.570Z,79.3
2018-05-07T02:54:08.509Z,79.1
2018-05-07T02:59:08.526Z,80.1
2018-05-07T03:04:08.532Z,80.2
2018-05-07T03:09:08.510Z,80
2018-05-07T03:14:08.563Z,79.8
2018-05-07T03:19:08.506Z,79.2
2018-05-07T03:24:20.404Z,78.9
2018-05-07T03:29:20.133Z,80.2
2018-05-07T03:34:20.141Z,81.6
2018-05-07T03:39:20.155Z,79.8
2018-05-07T03:44:20.367Z,80.7
2018-05-07T03:49:20.162Z,80.6
2018-05-07T03:54:21.182Z,80.1
2018-05-07T03:59:23.203Z,80.9
2018-05-07T04:04:23.092Z,80.9
2018-05-07T04:09:35.275Z,80.6
2018-05-07T04:14:34.984Z,80.7
2018-05-07T04:19:35.015Z,80.9
2018-05-07T04:24:35.040Z,80.2
2018-05-07T04:29:35.022Z,79.4
2018-05-07T04:34:35.017Z,80.4
2018-05-07T04:39:35.055Z,79.9
2018-05-07T04:44:35.755Z,78.8
2018-05-07T04:49:35.492Z,78.5
2018-05-07T04:54:48.030Z,78.5
2018-05-07T04:59:47.759Z,77.4
2018-05-07T05:04:47.844Z,76.9
2018-05-07T05:09:47.784Z,76.7
2018-05-07T05:14:47.914Z,75
2018-05-07T05:19:47.772Z,75.3
2018-05-07T05:24:47.796Z,74.8
2018-05-07T05:29:47.950Z,71.5
2018-05-07T05:34:47.914Z,68.7
2018-05-07T05:40:00.774Z,67.3
2018-05-07T05:44:59.530Z,66.2
2018-05-07T05:49:59.846Z,65.5
2018-05-07T05:54:59.445Z,62.4
2018-05-07T05:59:59.697Z,62.6
2018-05-07T06:04:59.519Z,60.7
2018-05-07T06:09:59.506Z,60.4
2018-05-07T06:14:59.793Z,60.1
2018-05-07T06:19:59.499Z,58
2018-05-07T06:25:11.181Z,56.2
2018-05-07T06:30:11.040Z,56.9
2018-05-07T06:35:10.904Z,54.9
2018-05-07T06:40:11.105Z,55
2018-05-07T06:45:11.104Z,54
2018-05-07T06:50:12.046Z,53.8
2018-05-07T06:55:11.762Z,53.7
2018-05-07T07:00:11.740Z,53.6
2018-05-07T07:05:11.734Z,54.2
2018-05-07T07:10:12.148Z,52.8
2018-05-07T07:15:12.005Z,52.8
2018-05-07T07:20:11.930Z,53.2
2018-05-07T07:25:11.944Z,52.6
2018-05-07T07:30:11.991Z,51.7
2018-05-07T07:35:24.434Z,51.7
2018-05-07T07:40:24.141Z,51.7
2018-05-07T07:45:24.355Z,51
2018-05-07T07:50:24.130Z,49.9
2018-05-07T07:55:24.449Z,49.2
2018-05-07T08:00:24.380Z,49.7
2018-05-07T08:05:24.247Z,48.3
2018-05-07T08:10:24.154Z,48.8
2018-05-07T08:15:32.416Z,47.3
2018-05-07T08:20:32.129Z,48.2
2018-05-07T08:25:32.130Z,47.6
2018-05-07T08:30:32.254Z,48
2018-05-07T08:35:32.161Z,47.1
2018-05-07T08:40:32.310Z,45.7
2018-05-07T08:45:32.133Z,46.2
2018-05-07T08:50:32.154Z,46.2
2018-05-07T08:55:32.481Z,45.7
2018-05-07T09:00:43.988Z,44.9
2018-05-07T09:05:43.565Z,44.5
2018-05-07T09:10:43.619Z,43.9
2018-05-07T09:15:43.581Z,44.5
2018-05-07T09:20:44.067Z,45.2
2018-05-07T09:25:44.484Z,43.7
2018-05-07T09:30:44.485Z,43.7
2018-05-07T09:35:44.488Z,44.3
2018-05-07T09:40:44.466Z,44.8
2018-05-07T09:45:56.317Z,44.9
2018-05-07T09:50:56.045Z,43.4
2018-05-07T09:55:56.051Z,43.7
2018-05-07T10:00:56.057Z,42.8
2018-05-07T10:05:56.464Z,42.9
2018-05-07T10:10:59.372Z,41.7
2018-05-07T10:15:59.280Z,42.3
2018-05-07T10:20:59.053Z,42.2
2018-05-07T10:25:59.132Z,42
2018-05-07T10:30:59.109Z,41.8
2018-05-07T10:35:59.121Z,42.4
2018-05-07T10:40:59.105Z,40.6
2018-05-07T10:45:59.313Z,40.9
2018-05-07T10:50:59.334Z,39.8
2018-05-07T10:56:11.816Z,39.3
2018-05-07T11:01:11.467Z,39.5
2018-05-07T11:06:11.354Z,40.3
2018-05-07T11:11:11.323Z,40
2018-05-07T11:16:11.618Z,39.8
2018-05-07T11:21:11.264Z,39.2
2018-05-07T11:26:11.377Z,39.7
2018-05-07T11:31:13.291Z,37.3
2018-05-07T11:36:12.881Z,37.6
2018-05-07T11:41:25.283Z,37.2
2018-05-07T11:46:24.970Z,36.9
2018-05-07T11:51:25.006Z,36.3
2018-05-07T11:56:24.936Z,35.3
2018-05-07T12:01:25.219Z,36.3
2018-05-07T12:06:25.001Z,36.4
2018-05-07T12:11:25.045Z,36.9
2018-05-07T12:16:25.024Z,36.7
2018-05-07T12:21:26.235Z,36.7
2018-05-07T12:26:36.585Z,34.7
2018-05-07T12:31:36.702Z,34.3
2018-05-07T12:36:36.516Z,35.5
2018-05-07T12:41:36.310Z,35.4
2018-05-07T12:46:36.454Z,34.5
2018-05-07T12:51:36.295Z,35.8
2018-05-07T12:56:36.316Z,35.2
2018-05-07T13:01:37.844Z,35.7
2018-05-07T13:06:37.553Z,37.2
2018-05-07T13:11:49.843Z,35.6
2018-05-07T13:16:50.034Z,35.6
2018-05-07T13:21:49.562Z,36.2
2018-05-07T13:26:49.577Z,35.6
2018-05-07T13:31:49.582Z,35.8
2018-05-07T13:36:49.901Z,35.6
2018-05-07T13:41:49.620Z,34.5
2018-05-07T13:46:49.594Z,35.9
2018-05-07T13:51:49.610Z,35.6
2018-05-07T13:57:01.690Z,35.9
2018-05-07T14:02:01.518Z,34.6
2018-05-07T14:07:01.389Z,34.5
2018-05-07T14:12:01.626Z,33.7
2018-05-07T14:17:01.370Z,34.8
2018-05-07T14:22:01.555Z,34.5
2018-05-07T14:27:01.425Z,33.8
2018-05-07T14:32:01.720Z,32.9
2018-05-07T14:37:01.420Z,33.8
2018-05-07T14:42:13.450Z,33.2
2018-05-07T14:47:12.896Z,34.1
2018-05-07T14:52:12.938Z,33.3
2018-05-07T14:57:12.937Z,32.4
2018-05-07T15:02:12.941Z,32
2018-05-07T15:07:13.073Z,32.7
2018-05-07T15:12:13.083Z,32.3
2018-05-07T15:17:13.088Z,32.1
2018-05-07T15:22:13.109Z,33.6
2018-05-07T15:27:13.084Z,33.9
2018-05-07T15:32:13.089Z,33.9
2018-05-07T15:37:13.180Z,34.3
2018-05-07T15:42:13.122Z,35
2018-05-07T15:47:13.122Z,34.2
2018-05-07T15:52:24.901Z,34.7
2018-05-07T15:57:24.624Z,34.1
2018-05-07T16:02:24.643Z,35
2018-05-07T16:07:24.642Z,34.4
2018-05-07T16:12:24.603Z,33.2
2018-05-07T16:17:24.643Z,34.2
2018-05-07T16:22:24.687Z,33.1
2018-05-07T16:27:25.744Z,34
2018-05-07T16:32:25.498Z,35.3
2018-05-07T16:37:38.660Z,34.5
2018-05-07T16:42:38.509Z,34.6
2018-05-07T16:47:38.247Z,36.7
2018-05-07T16:52:38.227Z,35.9
2018-05-07T16:57:38.378Z,36.2
2018-05-07T17:02:38.381Z,36.9
2018-05-07T17:07:38.712Z,35.7
2018-05-07T17:12:40.602Z,35.9
2018-05-07T17:17:39.973Z,35.8
2018-05-07T17:22:50.244Z,36
2018-05-07T17:27:49.974Z,36.3
2018-05-07T17:32:50.517Z,36.7
2018-05-07T17:37:49.960Z,35.7
2018-05-07T17:42:49.952Z,36.2
2018-05-07T17:47:50.164Z,36.7
2018-05-07T17:52:49.937Z,38
2018-05-07T17:57:52.200Z,38.2
2018-05-07T18:02:51.935Z,38.6
2018-05-07T18:08:04.105Z,38.8
2018-05-07T18:13:03.845Z,38.5
2018-05-07T18:18:04.066Z,39.4
2018-05-07T18:23:05.321Z,39.3
2018-05-07T18:28:03.863Z,39.7
2018-05-07T18:33:03.940Z,39.4
2018-05-07T18:38:04.229Z,40
2018-05-07T18:43:04.045Z,41.1
2018-05-07T18:48:03.895Z,41.2
2018-05-07T18:53:15.501Z,41.7
2018-05-07T18:58:15.228Z,41.3
2018-05-07T19:03:15.747Z,44
2018-05-07T19:08:15.190Z,45.9
2018-05-07T19:13:15.229Z,48.2
2018-05-07T19:18:15.213Z,48
2018-05-07T19:23:15.252Z,48.3
2018-05-07T19:28:16.681Z,48.4
2018-05-07T19:33:16.373Z,48.7
2018-05-07T19:38:28.904Z,49
2018-05-07T19:43:28.575Z,51.8
2018-05-07T19:48:29.074Z,52.2
2018-05-07T19:53:28.972Z,52.7
2018-05-07T19:58:31.452Z,53.2
2018-05-07T20:03:28.759Z,53.9
2018-05-07T20:08:28.767Z,54.7
2018-05-07T20:13:31.921Z,56.1
2018-05-07T20:18:32.748Z,57.2
2018-05-07T20:23:43.894Z,56.2
2018-05-07T20:28:43.880Z,58.5
2018-05-07T20:33:43.611Z,56.9
2018-05-07T20:38:43.952Z,58.5
2018-05-07T20:43:44.024Z,57.6
2018-05-07T20:48:44.033Z,57.4
2018-05-07T20:53:43.904Z,57.7
2018-05-07T20:58:45.321Z,57.9
2018-05-07T21:03:45.853Z,58
2018-05-07T21:08:56.983Z,57.6
2018-05-07T21:13:56.638Z,58.6
2018-05-07T21:18:56.670Z,59.4
2018-05-07T21:23:56.680Z,60.1
2018-05-07T21:28:57.018Z,59.5
2018-05-07T21:33:56.878Z,60.8
2018-05-07T21:38:56.876Z,60.5
2018-05-07T21:43:57.437Z,60.1
2018-05-07T21:48:58.362Z,61
2018-05-07T21:54:09.856Z,61.6
2018-05-07T21:59:09.691Z,60.8
2018-05-07T22:04:09.561Z,60.9
2018-05-07T22:09:09.669Z,61.1
2018-05-07T22:14:09.725Z,62.9
2018-05-07T22:19:09.750Z,62.9
2018-05-07T22:24:09.804Z,62.8
2018-05-07T22:29:11.214Z,63.9
2018-05-07T22:34:10.939Z,63.5
2018-05-07T22:39:24.018Z,62
2018-05-07T22:44:23.937Z,60.9
2018-05-07T22:49:23.866Z,59.7
2018-05-07T22:54:24.017Z,60.6
2018-05-07T22:59:25.365Z,61
2018-05-07T23:04:24.950Z,63.7
2018-05-07T23:09:24.382Z,65.1
2018-05-07T23:14:24.157Z,65.1
2018-05-07T23:19:24.189Z,64.1
2018-05-07T23:24:24.124Z,65.1
2018-05-07T23:29:24.149Z,66.1
2018-05-07T23:34:24.179Z,66.7
2018-05-07T23:39:26.544Z,66.4
2018-05-07T23:44:26.399Z,67
2018-05-07T23:49:39.276Z,66.1
2018-05-07T23:54:39.028Z,64.7
2018-05-07T23:59:39.008Z,64.2
